sensor_id;sensor_type;location;lat;lon;timestamp;P1;durP1;ratioP1;P2;durP2;ratioP2
19235;SDS011;9752;54.270;12.470;2022-09-03T00:00:20;3.77;;;2.63;;
19235;SDS011;9752;54.270;12.470;2022-09-03T00:05:38;2.47;;;2.27;;
19235;SDS011;9752;54.270;12.470;2022-09-03T00:10:55;6.03;;;2.50;;
19235;SDS011;9752;54.270;12.470;2022-09-03T00:16:09;2.63;;;2.20;;
19235;SDS011;9752;54.270;12.470;2022-09-03T00:21:31;2.67;;;1.90;;
19235;SDS011;9752;54.270;12.470;2022-09-03T00:26:49;2.10;;;1.90;;
19235;SDS011;9752;54.270;12.470;2022-09-03T00:32:05;2.90;;;2.30;;
19235;SDS011;9752;54.270;12.470;2022-09-03T00:37:20;2.53;;;2.00;;
19235;SDS011;9752;54.270;12.470;2022-09-03T00:42:26;7.67;;;2.67;;
19235;SDS011;9752;54.270;12.470;2022-09-03T00:47:39;2.90;;;2.10;;
19235;SDS011;9752;54.270;12.470;2022-09-03T00:52:53;2.07;;;1.87;;
19235;SDS011;9752;54.270;12.470;2022-09-03T00:58:13;3.63;;;1.80;;
19235;SDS011;9752;54.270;12.470;2022-09-03T01:03:31;2.33;;;2.13;;
19235;SDS011;9752;54.270;12.470;2022-09-03T01:08:57;1.87;;;1.77;;
19235;SDS011;9752;54.270;12.470;2022-09-03T01:14:18;2.07;;;1.90;;
19235;SDS011;9752;54.270;12.470;2022-09-03T01:19:36;2.90;;;2.00;;
19235;SDS011;9752;54.270;12.470;2022-09-03T01:25:05;6.77;;;2.13;;
19235;SDS011;9752;54.270;12.470;2022-09-03T01:30:18;3.00;;;1.87;;
19235;SDS011;9752;54.270;12.470;2022-09-03T01:35:22;1.73;;;1.63;;
19235;SDS011;9752;54.270;12.470;2022-09-03T01:40:33;2.57;;;1.97;;
19235;SDS011;9752;54.270;12.470;2022-09-03T01:45:46;2.97;;;1.73;;
19235;SDS011;9752;54.270;12.470;2022-09-03T01:50:55;1.87;;;1.77;;
19235;SDS011;9752;54.270;12.470;2022-09-03T01:56:09;2.47;;;1.70;;
19235;SDS011;9752;54.270;12.470;2022-09-03T02:01:23;2.00;;;1.80;;
19235;SDS011;9752;54.270;12.470;2022-09-03T02:06:29;2.70;;;1.80;;
19235;SDS011;9752;54.270;12.470;2022-09-03T02:11:31;3.20;;;2.00;;
19235;SDS011;9752;54.270;12.470;2022-09-03T02:16:35;2.47;;;2.00;;
19235;SDS011;9752;54.270;12.470;2022-09-03T02:21:38;2.67;;;2.47;;
19235;SDS011;9752;54.270;12.470;2022-09-03T02:26:46;5.83;;;2.00;;
19235;SDS011;9752;54.270;12.470;2022-09-03T02:31:49;3.47;;;1.90;;
19235;SDS011;9752;54.270;12.470;2022-09-03T02:36:51;2.90;;;1.70;;
19235;SDS011;9752;54.270;12.470;2022-09-03T02:41:54;2.10;;;2.00;;
19235;SDS011;9752;54.270;12.470;2022-09-03T02:47:00;2.17;;;1.97;;
19235;SDS011;9752;54.270;12.470;2022-09-03T02:52:04;2.30;;;2.10;;
19235;SDS011;9752;54.270;12.470;2022-09-03T02:57:09;5.60;;;2.20;;
19235;SDS011;9752;54.270;12.470;2022-09-03T03:02:13;2.10;;;1.90;;
19235;SDS011;9752;54.270;12.470;2022-09-03T03:07:15;3.97;;;2.30;;
19235;SDS011;9752;54.270;12.470;2022-09-03T03:12:17;3.70;;;2.10;;
19235;SDS011;9752;54.270;12.470;2022-09-03T03:17:21;2.47;;;2.03;;
19235;SDS011;9752;54.270;12.470;2022-09-03T03:22:22;4.53;;;2.27;;
19235;SDS011;9752;54.270;12.470;2022-09-03T03:27:24;3.23;;;2.17;;
19235;SDS011;9752;54.270;12.470;2022-09-03T03:32:28;3.80;;;2.50;;
19235;SDS011;9752;54.270;12.470;2022-09-03T03:37:30;2.57;;;2.10;;
19235;SDS011;9752;54.270;12.470;2022-09-03T03:42:32;2.93;;;2.30;;
19235;SDS011;9752;54.270;12.470;2022-09-03T03:47:36;2.97;;;2.60;;
19235;SDS011;9752;54.270;12.470;2022-09-03T03:52:37;3.67;;;2.40;;
19235;SDS011;9752;54.270;12.470;2022-09-03T03:57:39;5.00;;;2.47;;
19235;SDS011;9752;54.270;12.470;2022-09-03T04:02:42;2.50;;;2.30;;
19235;SDS011;9752;54.270;12.470;2022-09-03T04:07:44;4.20;;;3.07;;
19235;SDS011;9752;54.270;12.470;2022-09-03T04:12:45;3.47;;;2.60;;
19235;SDS011;9752;54.270;12.470;2022-09-03T04:17:48;2.93;;;2.37;;
19235;SDS011;9752;54.270;12.470;2022-09-03T04:22:50;2.83;;;2.63;;
19235;SDS011;9752;54.270;12.470;2022-09-03T04:27:52;4.17;;;2.57;;
19235;SDS011;9752;54.270;12.470;2022-09-03T04:32:55;2.87;;;2.43;;
19235;SDS011;9752;54.270;12.470;2022-09-03T04:37:56;4.03;;;2.37;;
19235;SDS011;9752;54.270;12.470;2022-09-03T04:42:58;2.90;;;2.63;;
19235;SDS011;9752;54.270;12.470;2022-09-03T04:48:02;3.67;;;2.60;;
19235;SDS011;9752;54.270;12.470;2022-09-03T04:53:05;3.40;;;2.80;;
19235;SDS011;9752;54.270;12.470;2022-09-03T04:58:06;5.10;;;2.97;;
19235;SDS011;9752;54.270;12.470;2022-09-03T05:03:10;4.03;;;2.73;;
19235;SDS011;9752;54.270;12.470;2022-09-03T05:08:11;2.90;;;2.70;;
19235;SDS011;9752;54.270;12.470;2022-09-03T05:13:13;3.10;;;2.83;;
19235;SDS011;9752;54.270;12.470;2022-09-03T05:18:16;3.50;;;3.20;;
19235;SDS011;9752;54.270;12.470;2022-09-03T05:23:18;3.70;;;3.40;;
19235;SDS011;9752;54.270;12.470;2022-09-03T05:28:21;8.07;;;3.87;;
19235;SDS011;9752;54.270;12.470;2022-09-03T05:33:24;3.60;;;3.30;;
19235;SDS011;9752;54.270;12.470;2022-09-03T05:38:27;4.77;;;3.23;;
19235;SDS011;9752;54.270;12.470;2022-09-03T05:43:29;3.37;;;3.13;;
19235;SDS011;9752;54.270;12.470;2022-09-03T05:48:33;3.67;;;3.47;;
19235;SDS011;9752;54.270;12.470;2022-09-03T05:53:37;3.47;;;3.17;;
19235;SDS011;9752;54.270;12.470;2022-09-03T05:58:40;3.40;;;3.10;;
19235;SDS011;9752;54.270;12.470;2022-09-03T06:03:46;3.53;;;3.13;;
19235;SDS011;9752;54.270;12.470;2022-09-03T06:08:54;3.83;;;3.47;;
19235;SDS011;9752;54.270;12.470;2022-09-03T06:13:58;3.57;;;3.27;;
19235;SDS011;9752;54.270;12.470;2022-09-03T06:19:02;3.50;;;3.30;;
19235;SDS011;9752;54.270;12.470;2022-09-03T06:24:08;3.40;;;3.20;;
19235;SDS011;9752;54.270;12.470;2022-09-03T06:29:12;4.70;;;3.43;;
19235;SDS011;9752;54.270;12.470;2022-09-03T06:34:15;3.53;;;3.30;;
19235;SDS011;9752;54.270;12.470;2022-09-03T06:39:18;5.60;;;3.60;;
19235;SDS011;9752;54.270;12.470;2022-09-03T06:44:19;3.67;;;3.37;;
19235;SDS011;9752;54.270;12.470;2022-09-03T06:49:22;3.47;;;3.10;;
19235;SDS011;9752;54.270;12.470;2022-09-03T06:54:25;4.03;;;3.67;;
19235;SDS011;9752;54.270;12.470;2022-09-03T06:59:26;5.90;;;3.57;;
19235;SDS011;9752;54.270;12.470;2022-09-03T07:04:30;4.23;;;3.83;;
19235;SDS011;9752;54.270;12.470;2022-09-03T07:09:33;3.97;;;3.57;;
19235;SDS011;9752;54.270;12.470;2022-09-03T07:14:38;5.83;;;4.00;;
19235;SDS011;9752;54.270;12.470;2022-09-03T07:19:41;4.27;;;3.97;;
19235;SDS011;9752;54.270;12.470;2022-09-03T07:24:43;4.00;;;3.70;;
19235;SDS011;9752;54.270;12.470;2022-09-03T07:29:46;6.27;;;4.23;;
19235;SDS011;9752;54.270;12.470;2022-09-03T07:34:50;4.50;;;4.20;;
19235;SDS011;9752;54.270;12.470;2022-09-03T07:39:52;4.63;;;4.40;;
19235;SDS011;9752;54.270;12.470;2022-09-03T07:44:53;4.90;;;4.50;;
19235;SDS011;9752;54.270;12.470;2022-09-03T07:49:56;4.77;;;4.50;;
19235;SDS011;9752;54.270;12.470;2022-09-03T07:54:59;5.20;;;4.70;;
19235;SDS011;9752;54.270;12.470;2022-09-03T08:00:02;4.93;;;4.53;;
19235;SDS011;9752;54.270;12.470;2022-09-03T08:05:13;5.37;;;4.83;;
19235;SDS011;9752;54.270;12.470;2022-09-03T08:10:15;5.23;;;5.03;;
19235;SDS011;9752;54.270;12.470;2022-09-03T08:15:16;5.13;;;4.80;;
19235;SDS011;9752;54.270;12.470;2022-09-03T08:20:19;5.17;;;4.97;;
19235;SDS011;9752;54.270;12.470;2022-09-03T08:25:21;5.03;;;4.83;;
19235;SDS011;9752;54.270;12.470;2022-09-03T08:30:23;5.40;;;5.20;;
19235;SDS011;9752;54.270;12.470;2022-09-03T08:35:28;5.50;;;5.20;;
19235;SDS011;9752;54.270;12.470;2022-09-03T08:40:33;5.67;;;5.37;;
19235;SDS011;9752;54.270;12.470;2022-09-03T08:45:37;6.97;;;6.53;;
19235;SDS011;9752;54.270;12.470;2022-09-03T08:50:42;7.23;;;6.80;;
19235;SDS011;9752;54.270;12.470;2022-09-03T08:55:49;8.60;;;8.20;;
19235;SDS011;9752;54.270;12.470;2022-09-03T09:00:54;6.63;;;6.33;;
19235;SDS011;9752;54.270;12.470;2022-09-03T09:06:06;7.17;;;6.70;;
19235;SDS011;9752;54.270;12.470;2022-09-03T09:11:14;7.33;;;7.03;;
19235;SDS011;9752;54.270;12.470;2022-09-03T09:16:28;8.03;;;7.60;;
19235;SDS011;9752;54.270;12.470;2022-09-03T09:21:38;8.43;;;7.70;;
19235;SDS011;9752;54.270;12.470;2022-09-03T09:26:45;7.40;;;6.80;;
19235;SDS011;9752;54.270;12.470;2022-09-03T09:31:47;7.30;;;6.90;;
19235;SDS011;9752;54.270;12.470;2022-09-03T09:36:51;9.07;;;8.50;;
19235;SDS011;9752;54.270;12.470;2022-09-03T09:41:57;9.17;;;8.77;;
19235;SDS011;9752;54.270;12.470;2022-09-03T09:47:01;9.50;;;9.00;;
19235;SDS011;9752;54.270;12.470;2022-09-03T09:52:09;8.63;;;8.00;;
19235;SDS011;9752;54.270;12.470;2022-09-03T09:57:14;10.13;;;9.67;;
19235;SDS011;9752;54.270;12.470;2022-09-03T10:02:19;11.17;;;10.03;;
19235;SDS011;9752;54.270;12.470;2022-09-03T10:07:30;10.60;;;10.10;;
19235;SDS011;9752;54.270;12.470;2022-09-03T10:12:34;11.00;;;10.60;;
19235;SDS011;9752;54.270;12.470;2022-09-03T10:17:42;10.33;;;9.80;;
19235;SDS011;9752;54.270;12.470;2022-09-03T10:23:02;11.37;;;10.93;;
19235;SDS011;9752;54.270;12.470;2022-09-03T10:28:11;10.83;;;10.30;;
19235;SDS011;9752;54.270;12.470;2022-09-03T10:33:14;12.07;;;11.57;;
19235;SDS011;9752;54.270;12.470;2022-09-03T10:38:23;11.97;;;11.40;;
19235;SDS011;9752;54.270;12.470;2022-09-03T10:43:36;11.33;;;10.80;;
19235;SDS011;9752;54.270;12.470;2022-09-03T10:48:50;12.30;;;11.57;;
19235;SDS011;9752;54.270;12.470;2022-09-03T10:54:27;12.30;;;11.80;;
19235;SDS011;9752;54.270;12.470;2022-09-03T10:59:41;12.00;;;11.60;;
19235;SDS011;9752;54.270;12.470;2022-09-03T11:04:57;11.07;;;10.57;;
19235;SDS011;9752;54.270;12.470;2022-09-03T11:10:08;11.37;;;10.97;;
19235;SDS011;9752;54.270;12.470;2022-09-03T11:15:19;11.57;;;10.97;;
19235;SDS011;9752;54.270;12.470;2022-09-03T11:20:26;12.23;;;11.50;;
19235;SDS011;9752;54.270;12.470;2022-09-03T11:25:30;11.70;;;11.20;;
19235;SDS011;9752;54.270;12.470;2022-09-03T11:30:36;12.03;;;11.30;;
19235;SDS011;9752;54.270;12.470;2022-09-03T11:35:53;11.50;;;10.80;;
19235;SDS011;9752;54.270;12.470;2022-09-03T11:40:59;11.70;;;11.10;;
19235;SDS011;9752;54.270;12.470;2022-09-03T11:46:04;11.63;;;11.23;;
19235;SDS011;9752;54.270;12.470;2022-09-03T11:51:19;12.37;;;11.77;;
19235;SDS011;9752;54.270;12.470;2022-09-03T11:56:31;12.00;;;11.60;;
19235;SDS011;9752;54.270;12.470;2022-09-03T12:01:34;11.70;;;11.10;;
19235;SDS011;9752;54.270;12.470;2022-09-03T12:06:42;10.63;;;10.23;;
19235;SDS011;9752;54.270;12.470;2022-09-03T12:12:08;11.47;;;10.97;;
19235;SDS011;9752;54.270;12.470;2022-09-03T12:17:32;12.67;;;12.20;;
19235;SDS011;9752;54.270;12.470;2022-09-03T12:22:38;12.07;;;11.57;;
19235;SDS011;9752;54.270;12.470;2022-09-03T12:27:43;12.60;;;11.90;;
19235;SDS011;9752;54.270;12.470;2022-09-03T12:32:46;11.43;;;10.90;;
19235;SDS011;9752;54.270;12.470;2022-09-03T12:37:50;12.97;;;12.33;;
19235;SDS011;9752;54.270;12.470;2022-09-03T12:42:59;12.20;;;11.80;;
19235;SDS011;9752;54.270;12.470;2022-09-03T12:48:13;11.20;;;10.70;;
19235;SDS011;9752;54.270;12.470;2022-09-03T12:53:17;11.43;;;10.93;;
19235;SDS011;9752;54.270;12.470;2022-09-03T12:58:26;12.00;;;11.50;;
19235;SDS011;9752;54.270;12.470;2022-09-03T13:03:39;14.63;;;13.47;;
19235;SDS011;9752;54.270;12.470;2022-09-03T13:08:48;42.63;;;23.90;;
19235;SDS011;9752;54.270;12.470;2022-09-03T13:13:54;22.43;;;16.13;;
19235;SDS011;9752;54.270;12.470;2022-09-03T13:19:02;14.17;;;13.07;;
19235;SDS011;9752;54.270;12.470;2022-09-03T13:24:17;16.50;;;13.37;;
19235;SDS011;9752;54.270;12.470;2022-09-03T13:29:37;21.63;;;18.10;;
19235;SDS011;9752;54.270;12.470;2022-09-03T13:34:47;10.77;;;10.37;;
19235;SDS011;9752;54.270;12.470;2022-09-03T13:39:54;10.90;;;10.50;;
19235;SDS011;9752;54.270;12.470;2022-09-03T13:45:02;12.33;;;11.63;;
19235;SDS011;9752;54.270;12.470;2022-09-03T13:50:16;11.90;;;11.50;;
19235;SDS011;9752;54.270;12.470;2022-09-03T13:55:24;12.43;;;11.93;;
19235;SDS011;9752;54.270;12.470;2022-09-03T14:00:31;12.10;;;11.60;;
19235;SDS011;9752;54.270;12.470;2022-09-03T14:05:42;12.27;;;11.67;;
19235;SDS011;9752;54.270;12.470;2022-09-03T14:11:01;12.20;;;11.60;;
19235;SDS011;9752;54.270;12.470;2022-09-03T14:16:12;12.83;;;12.23;;
19235;SDS011;9752;54.270;12.470;2022-09-03T14:21:26;11.80;;;11.37;;
19235;SDS011;9752;54.270;12.470;2022-09-03T14:26:32;11.40;;;11.00;;
19235;SDS011;9752;54.270;12.470;2022-09-03T14:37:07;11.90;;;11.40;;
19235;SDS011;9752;54.270;12.470;2022-09-03T14:42:30;18.03;;;16.27;;
19235;SDS011;9752;54.270;12.470;2022-09-03T14:48:03;12.33;;;11.73;;
19235;SDS011;9752;54.270;12.470;2022-09-03T14:59:01;12.63;;;12.07;;
19235;SDS011;9752;54.270;12.470;2022-09-03T15:04:28;12.23;;;11.73;;
19235;SDS011;9752;54.270;12.470;2022-09-03T15:09:52;12.63;;;11.87;;
19235;SDS011;9752;54.270;12.470;2022-09-03T15:15:04;13.43;;;12.70;;
19235;SDS011;9752;54.270;12.470;2022-09-03T15:20:14;11.80;;;11.40;;
19235;SDS011;9752;54.270;12.470;2022-09-03T15:25:25;12.10;;;11.60;;
19235;SDS011;9752;54.270;12.470;2022-09-03T15:30:35;12.40;;;11.80;;
19235;SDS011;9752;54.270;12.470;2022-09-03T15:35:51;12.63;;;12.00;;
19235;SDS011;9752;54.270;12.470;2022-09-03T15:41:04;11.27;;;10.80;;
19235;SDS011;9752;54.270;12.470;2022-09-03T15:46:11;11.23;;;10.90;;
19235;SDS011;9752;54.270;12.470;2022-09-03T15:51:35;11.43;;;11.03;;
19235;SDS011;9752;54.270;12.470;2022-09-03T15:56:49;12.13;;;11.63;;
19235;SDS011;9752;54.270;12.470;2022-09-03T16:01:55;12.27;;;11.87;;
19235;SDS011;9752;54.270;12.470;2022-09-03T16:07:06;11.57;;;11.07;;
19235;SDS011;9752;54.270;12.470;2022-09-03T16:12:19;12.13;;;11.43;;
19235;SDS011;9752;54.270;12.470;2022-09-03T16:17:32;11.40;;;11.00;;
19235;SDS011;9752;54.270;12.470;2022-09-03T16:22:42;12.13;;;11.73;;
19235;SDS011;9752;54.270;12.470;2022-09-03T16:27:51;12.40;;;11.80;;
19235;SDS011;9752;54.270;12.470;2022-09-03T16:32:58;11.47;;;10.97;;
19235;SDS011;9752;54.270;12.470;2022-09-03T16:38:18;11.47;;;10.80;;
19235;SDS011;9752;54.270;12.470;2022-09-03T16:43:32;12.20;;;11.70;;
19235;SDS011;9752;54.270;12.470;2022-09-03T16:48:44;12.03;;;11.40;;
19235;SDS011;9752;54.270;12.470;2022-09-03T16:54:03;10.90;;;10.40;;
19235;SDS011;9752;54.270;12.470;2022-09-03T16:59:20;12.07;;;11.17;;
19235;SDS011;9752;54.270;12.470;2022-09-03T17:04:43;11.67;;;11.27;;
19235;SDS011;9752;54.270;12.470;2022-09-03T17:09:59;11.33;;;10.80;;
19235;SDS011;9752;54.270;12.470;2022-09-03T17:15:10;11.33;;;10.60;;
19235;SDS011;9752;54.270;12.470;2022-09-03T17:20:24;10.93;;;10.53;;
19235;SDS011;9752;54.270;12.470;2022-09-03T17:25:39;10.37;;;9.87;;
19235;SDS011;9752;54.270;12.470;2022-09-03T17:30:54;10.13;;;9.53;;
19235;SDS011;9752;54.270;12.470;2022-09-03T17:36:01;8.57;;;8.27;;
19235;SDS011;9752;54.270;12.470;2022-09-03T17:41:14;7.43;;;6.93;;
19235;SDS011;9752;54.270;12.470;2022-09-03T17:46:28;6.07;;;5.77;;
19235;SDS011;9752;54.270;12.470;2022-09-03T17:51:40;5.90;;;5.47;;
19235;SDS011;9752;54.270;12.470;2022-09-03T17:56:48;5.33;;;5.03;;
19235;SDS011;9752;54.270;12.470;2022-09-03T18:01:59;6.17;;;5.67;;
19235;SDS011;9752;54.270;12.470;2022-09-03T18:07:06;4.70;;;4.40;;
19235;SDS011;9752;54.270;12.470;2022-09-03T18:12:14;5.20;;;4.80;;
19235;SDS011;9752;54.270;12.470;2022-09-03T18:17:30;4.77;;;4.37;;
19235;SDS011;9752;54.270;12.470;2022-09-03T18:22:39;5.63;;;4.60;;
19235;SDS011;9752;54.270;12.470;2022-09-03T18:28:08;4.20;;;4.00;;
19235;SDS011;9752;54.270;12.470;2022-09-03T18:33:32;4.73;;;4.30;;
19235;SDS011;9752;54.270;12.470;2022-09-03T18:38:52;4.60;;;4.20;;
19235;SDS011;9752;54.270;12.470;2022-09-03T18:44:19;4.13;;;3.83;;
19235;SDS011;9752;54.270;12.470;2022-09-03T18:49:48;4.10;;;3.80;;
19235;SDS011;9752;54.270;12.470;2022-09-03T18:55:17;4.57;;;4.17;;
19235;SDS011;9752;54.270;12.470;2022-09-03T19:00:48;4.33;;;4.03;;
19235;SDS011;9752;54.270;12.470;2022-09-03T19:06:17;3.73;;;3.53;;
19235;SDS011;9752;54.270;12.470;2022-09-03T19:11:48;3.80;;;3.60;;
19235;SDS011;9752;54.270;12.470;2022-09-03T19:17:19;4.03;;;3.60;;
19235;SDS011;9752;54.270;12.470;2022-09-03T19:22:45;3.27;;;3.17;;
19235;SDS011;9752;54.270;12.470;2022-09-03T19:28:14;3.67;;;3.37;;
19235;SDS011;9752;54.270;12.470;2022-09-03T19:33:41;3.43;;;3.13;;
19235;SDS011;9752;54.270;12.470;2022-09-03T19:39:10;3.50;;;3.20;;
19235;SDS011;9752;54.270;12.470;2022-09-03T19:44:41;5.53;;;3.47;;
19235;SDS011;9752;54.270;12.470;2022-09-03T19:50:12;3.27;;;3.07;;
19235;SDS011;9752;54.270;12.470;2022-09-03T19:55:39;3.67;;;3.47;;
19235;SDS011;9752;54.270;12.470;2022-09-03T20:01:02;4.17;;;3.87;;
19235;SDS011;9752;54.270;12.470;2022-09-03T20:06:23;3.80;;;3.60;;
19235;SDS011;9752;54.270;12.470;2022-09-03T20:11:43;4.30;;;3.90;;
19235;SDS011;9752;54.270;12.470;2022-09-03T20:16:53;3.90;;;3.50;;
19235;SDS011;9752;54.270;12.470;2022-09-03T20:22:09;3.87;;;3.40;;
19235;SDS011;9752;54.270;12.470;2022-09-03T20:27:24;3.80;;;3.50;;
19235;SDS011;9752;54.270;12.470;2022-09-03T20:32:51;4.70;;;3.73;;
19235;SDS011;9752;54.270;12.470;2022-09-03T20:38:23;3.83;;;3.33;;
19235;SDS011;9752;54.270;12.470;2022-09-03T20:43:52;3.53;;;3.30;;
19235;SDS011;9752;54.270;12.470;2022-09-03T20:49:10;3.40;;;3.20;;
19235;SDS011;9752;54.270;12.470;2022-09-03T20:54:26;6.10;;;3.43;;
19235;SDS011;9752;54.270;12.470;2022-09-03T20:59:36;5.23;;;3.60;;
19235;SDS011;9752;54.270;12.470;2022-09-03T21:04:50;5.57;;;3.23;;
19235;SDS011;9752;54.270;12.470;2022-09-03T21:10:04;3.30;;;3.00;;
19235;SDS011;9752;54.270;12.470;2022-09-03T21:15:14;3.87;;;3.57;;
19235;SDS011;9752;54.270;12.470;2022-09-03T21:20:24;4.00;;;3.67;;
19235;SDS011;9752;54.270;12.470;2022-09-03T21:25:38;4.10;;;3.70;;
19235;SDS011;9752;54.270;12.470;2022-09-03T21:30:46;3.23;;;3.00;;
19235;SDS011;9752;54.270;12.470;2022-09-03T21:35:52;3.40;;;3.10;;
19235;SDS011;9752;54.270;12.470;2022-09-03T21:41:05;4.63;;;2.97;;
19235;SDS011;9752;54.270;12.470;2022-09-03T21:46:16;4.53;;;3.00;;
19235;SDS011;9752;54.270;12.470;2022-09-03T21:51:23;4.43;;;3.20;;
19235;SDS011;9752;54.270;12.470;2022-09-03T21:56:41;3.83;;;3.43;;
19235;SDS011;9752;54.270;12.470;2022-09-03T22:02:08;3.80;;;3.40;;
19235;SDS011;9752;54.270;12.470;2022-09-03T22:07:19;3.57;;;3.37;;
19235;SDS011;9752;54.270;12.470;2022-09-03T22:12:28;5.30;;;3.77;;
19235;SDS011;9752;54.270;12.470;2022-09-03T22:17:39;5.63;;;3.90;;
19235;SDS011;9752;54.270;12.470;2022-09-03T22:22:50;3.43;;;3.20;;
19235;SDS011;9752;54.270;12.470;2022-09-03T22:27:59;7.63;;;3.40;;
19235;SDS011;9752;54.270;12.470;2022-09-03T22:33:08;3.97;;;3.70;;
19235;SDS011;9752;54.270;12.470;2022-09-03T22:43:54;4.60;;;4.20;;
19235;SDS011;9752;54.270;12.470;2022-09-03T22:49:18;4.53;;;4.10;;
19235;SDS011;9752;54.270;12.470;2022-09-03T22:54:32;4.57;;;4.23;;
19235;SDS011;9752;54.270;12.470;2022-09-03T22:59:48;4.50;;;4.30;;
19235;SDS011;9752;54.270;12.470;2022-09-03T23:04:59;4.30;;;4.00;;
19235;SDS011;9752;54.270;12.470;2022-09-03T23:10:07;5.30;;;4.40;;
19235;SDS011;9752;54.270;12.470;2022-09-03T23:15:14;4.50;;;4.20;;
19235;SDS011;9752;54.270;12.470;2022-09-03T23:20:21;4.67;;;4.30;;
19235;SDS011;9752;54.270;12.470;2022-09-03T23:25:27;4.80;;;4.30;;
19235;SDS011;9752;54.270;12.470;2022-09-03T23:30:34;5.13;;;4.33;;
19235;SDS011;9752;54.270;12.470;2022-09-03T23:35:39;4.10;;;3.90;;
19235;SDS011;9752;54.270;12.470;2022-09-03T23:40:49;3.97;;;3.67;;
19235;SDS011;9752;54.270;12.470;2022-09-03T23:45:58;4.63;;;4.33;;
19235;SDS011;9752;54.270;12.470;2022-09-03T23:51:07;4.20;;;3.90;;
19235;SDS011;9752;54.270;12.470;2022-09-03T23:56:27;3.83;;;3.63;;
